Coreocean Ol — 3FKW9 — position and weather

sailwx.info

Track history (hours):
 
Tides and Currents Weather Stations Pressure Air Temp Water Temp Dewpoint Dewpoint Depression Visibility Wind Speed Wind Dir Waves Ship Positions

Coreocean Ol

Last reported at 2018-May-23 11:07 UTC. Time now 2018-May-24 21:18 UTC.
Position N 23°20' E 117°30'.

Length 170 m; draft 9.4 m.

Type: Cargo ship. MMSI: 372878000.

Date/timePositionNaut miles runAvg speedWind from/ knotsBaromVisibWave heightAir tempDewpointWater temp
2018-May-23 11:07N 23°20' E 117°30'512.8
2018-May-23 10:42N 23°24' E 117°35'312.5
2018-May-23 10:29N 23°25' E 117°37'612.5
2018-May-23 10:00N 23°29' E 117°42'612.1
2018-May-23 09:30N 23°32' E 117°48'611.9
2018-May-23 09:00N 23°36' E 117°53'612.0
2018-May-23 08:28N 23°39' E 117°59'612.1
2018-May-23 08:00N 23°43' E 118°04'612.3
2018-May-23 07:30N 23°46' E 118°09'612.3
2018-May-23 07:00N 23°50' E 118°15'712.3
2018-May-23 06:25N 23°54' E 118°21'  
2018-May-14 06:33N 35°15' E 130°05'213.8
2018-May-14 06:24N 35°14' E 130°03'1313.7
2018-May-14 05:28N 35°07' E 129°50'715.0
2018-May-14 05:00N 35°02' E 129°43'815.1
2018-May-14 04:30N 34°58' E 129°36'815.5
2018-May-14 04:00N 34°53' E 129°29'816.3
2018-May-14 03:31N 34°49' E 129°21'1016.1
2018-May-14 02:54N 34°43' E 129°11'  
Track history (hours):
 
Tides and Currents Weather Stations Pressure Air Temp Water Temp Dewpoint Dewpoint Depression Visibility Wind Speed Wind Dir Waves Ship Positions

Coreocean Ol

Last reported at 2018-May-23 11:07 UTC. Time now 2018-May-24 21:18 UTC.
Position N 23°20' E 117°30'.

Length 170 m; draft 9.4 m.

Type: Cargo ship. MMSI: 372878000.

Date/timePositionNaut miles runAvg speedWind from/ knotsBaromVisibWave heightAir tempDewpointWater temp
2018-May-23 11:07N 23°20' E 117°30'512.8
2018-May-23 10:42N 23°24' E 117°35'312.5
2018-May-23 10:29N 23°25' E 117°37'612.5
2018-May-23 10:00N 23°29' E 117°42'612.1
2018-May-23 09:30N 23°32' E 117°48'611.9
2018-May-23 09:00N 23°36' E 117°53'612.0
2018-May-23 08:28N 23°39' E 117°59'612.1
2018-May-23 08:00N 23°43' E 118°04'612.3
2018-May-23 07:30N 23°46' E 118°09'612.3
2018-May-23 07:00N 23°50' E 118°15'712.3
2018-May-23 06:25N 23°54' E 118°21'  
2018-May-14 06:33N 35°15' E 130°05'213.8
2018-May-14 06:24N 35°14' E 130°03'1313.7
2018-May-14 05:28N 35°07' E 129°50'715.0
2018-May-14 05:00N 35°02' E 129°43'815.1
2018-May-14 04:30N 34°58' E 129°36'815.5
2018-May-14 04:00N 34°53' E 129°29'816.3
2018-May-14 03:31N 34°49' E 129°21'1016.1
2018-May-14 02:54N 34°43' E 129°11'  

Dump ship's entire track history